Time;durP1;ratioP1;P1;durP2;ratioP2;P2;SDS_P1;SDS_P2;PMS_P1;PMS_P2;Temp;Humidity;BMP_temperature;BMP_pressure;BME280_temperature;BME280_humidity;BME280_pressure;Samples;Min_cycle;Max_cycle;Signal;HPM_P1;HPM_P2
2022/01/26 00:06:23;;;;;;;10.40;5.93;;;2.50;99.90;;;;;;8399678;28;20280;-66
2022/01/26 00:10:24;;;;;;;8.40;5.43;;;2.50;99.90;;;;;;8399166;28;20286;-67
2022/01/26 00:14:25;;;;;;;11.67;6.73;;;2.50;99.90;;;;;;8390723;28;20182;-67
2022/01/26 00:18:30;;;;;;;9.90;5.50;;;2.50;99.90;;;;;;8394988;28;20205;-65
2022/01/26 00:39:14;;;;;;;13.17;6.70;;;2.50;99.90;;;;;;8408389;28;20199;-66
2022/01/26 00:43:21;;;;;;;10.17;6.33;;;2.50;99.90;;;;;;8405251;28;20184;-66
2022/01/26 00:47:21;;;;;;;10.37;6.17;;;2.50;99.90;;;;;;8408180;28;20204;-65
2022/01/26 00:51:22;;;;;;;10.60;6.10;;;2.50;99.90;;;;;;8402038;28;20187;-66
2022/01/26 00:55:24;;;;;;;11.77;6.70;;;2.50;99.90;;;;;;8388872;28;20240;-67
2022/01/26 00:59:24;;;;;;;9.77;6.17;;;2.50;99.90;;;;;;8398630;28;20181;-70
2022/01/26 01:03:26;;;;;;;11.67;6.13;;;2.50;99.90;;;;;;8404175;28;20241;-67
2022/01/26 01:07:31;;;;;;;10.00;6.20;;;2.50;99.90;;;;;;8395416;28;20217;-65
2022/01/26 01:11:32;;;;;;;10.87;6.17;;;2.50;99.90;;;;;;8389363;28;20195;-65
2022/01/26 01:15:36;;;;;;;10.17;5.93;;;2.50;99.90;;;;;;8384678;28;20202;-66
2022/01/26 01:20:00;;;;;;;10.43;6.73;;;2.50;99.90;;;;;;8383594;28;20189;-66
2022/01/26 01:24:48;;;;;;;14.40;6.57;;;2.40;99.90;;;;;;8409819;28;20188;-66
2022/01/26 01:28:53;;;;;;;9.40;5.70;;;2.40;99.90;;;;;;8406114;28;20224;-67
2022/01/26 01:33:19;;;;;;;13.23;7.33;;;2.40;99.90;;;;;;8418889;28;20184;-65
2022/01/26 01:37:16;;;;;;;13.17;6.80;;;2.40;99.90;;;;;;8406957;28;20193;-66
2022/01/26 01:41:17;;;;;;;12.77;6.70;;;2.40;99.90;;;;;;8395937;28;20255;-66
2022/01/26 01:45:17;;;;;;;14.40;6.83;;;2.40;99.90;;;;;;8406036;28;20245;-65
2022/01/26 01:49:18;;;;;;;12.47;6.23;;;2.50;99.90;;;;;;8391990;28;20232;-66
2022/01/26 01:53:19;;;;;;;12.93;6.97;;;2.50;99.90;;;;;;8393935;28;20207;-65
2022/01/26 01:57:23;;;;;;;16.33;7.63;;;2.40;99.90;;;;;;8384229;28;20254;-66
2022/01/26 02:01:25;;;;;;;18.03;8.63;;;2.40;99.90;;;;;;8399580;28;20184;-66
2022/01/26 02:05:26;;;;;;;12.37;6.87;;;2.40;99.90;;;;;;8388224;28;20189;-66
2022/01/26 02:09:27;;;;;;;14.93;7.20;;;2.40;99.90;;;;;;8414802;28;20267;-65
2022/01/26 02:13:33;;;;;;;12.93;6.97;;;2.40;99.90;;;;;;8408673;28;20184;-66
2022/01/26 02:52:28;;;;;;;13.50;7.20;;;2.40;99.90;;;;;;8390412;28;20227;-66
2022/01/26 02:56:43;;;;;;;10.50;5.77;;;2.30;99.90;;;;;;8384954;28;20192;-66
2022/01/26 03:05:06;;;;;;;11.60;6.70;;;2.30;99.90;;;;;;8398106;28;20204;-66
2022/01/26 03:09:12;;;;;;;13.30;6.87;;;2.30;99.90;;;;;;8391756;28;20216;-67
2022/01/26 03:13:19;;;;;;;15.70;7.50;;;2.30;99.90;;;;;;8389484;28;20178;-65
2022/01/26 03:21:51;;;;;;;13.00;6.20;;;2.20;99.90;;;;;;8395063;28;20219;-66
2022/01/26 03:34:19;;;;;;;13.10;6.90;;;2.20;99.90;;;;;;8413302;28;20177;-65
2022/01/26 03:42:21;;;;;;;20.90;8.10;;;2.20;99.90;;;;;;8406434;28;20189;-66
2022/01/26 03:46:21;;;;;;;16.10;7.67;;;2.20;99.90;;;;;;8396568;28;20180;-66
2022/01/26 03:50:24;;;;;;;16.30;7.07;;;2.20;99.90;;;;;;8391031;28;20213;-66
2022/01/26 03:54:24;;;;;;;16.47;7.30;;;2.20;99.90;;;;;;8403032;28;20262;-65
2022/01/26 03:58:25;;;;;;;18.77;8.17;;;2.20;99.90;;;;;;8384811;28;20199;-66
2022/01/26 04:02:26;;;;;;;16.07;7.63;;;2.20;99.90;;;;;;8383209;28;20185;-65
2022/01/26 04:06:28;;;;;;;16.27;7.73;;;2.20;99.90;;;;;;8400684;28;20220;-66
2022/01/26 04:10:54;;;;;;;18.43;8.47;;;2.20;99.90;;;;;;8414340;28;20209;-66
2022/01/26 04:14:59;;;;;;;17.70;8.73;;;2.20;99.90;;;;;;8397002;28;20185;-65
2022/01/26 04:19:00;;;;;;;15.50;7.57;;;2.20;99.90;;;;;;8395136;28;20205;-66
2022/01/26 04:23:13;;;;;;;21.17;8.70;;;2.10;99.90;;;;;;8398962;28;20195;-65
2022/01/26 04:27:50;;;;;;;18.87;8.60;;;2.10;99.90;;;;;;8388730;28;20213;-66
2022/01/26 04:31:41;;;;;;;18.03;8.23;;;2.10;99.90;;;;;;8400118;28;20189;-65
2022/01/26 04:35:45;;;;;;;22.80;8.63;;;2.10;99.90;;;;;;8401488;28;20181;-66
2022/01/26 04:39:52;;;;;;;20.47;8.83;;;2.10;99.90;;;;;;8393754;28;20185;-68
2022/01/26 04:43:59;;;;;;;21.13;9.80;;;2.10;99.90;;;;;;8405064;28;20252;-66
2022/01/26 04:47:59;;;;;;;19.47;9.40;;;2.20;99.90;;;;;;8399049;28;20208;-66
2022/01/26 04:52:01;;;;;;;20.37;8.87;;;2.20;99.90;;;;;;8398198;28;20193;-66
2022/01/26 04:56:02;;;;;;;20.70;8.37;;;2.20;99.90;;;;;;8397463;28;20229;-66
2022/01/26 05:00:05;;;;;;;20.50;8.97;;;2.20;99.90;;;;;;8403186;28;20193;-66
2022/01/26 05:04:06;;;;;;;20.10;9.77;;;2.20;99.90;;;;;;8416448;28;20193;-66
2022/01/26 05:08:07;;;;;;;21.37;9.40;;;2.20;99.90;;;;;;8412704;28;20212;-67
2022/01/26 05:12:09;;;;;;;21.70;9.30;;;2.20;99.90;;;;;;8403700;28;20194;-65
2022/01/26 05:16:10;;;;;;;22.37;10.27;;;2.20;99.90;;;;;;8388371;28;20320;-65
2022/01/26 05:20:12;;;;;;;21.90;9.80;;;2.20;99.90;;;;;;8419539;28;20192;-65
2022/01/26 05:24:13;;;;;;;24.13;10.00;;;2.20;99.90;;;;;;8405681;28;20188;-65
2022/01/26 05:28:14;;;;;;;26.63;10.00;;;2.20;99.90;;;;;;8389768;28;20291;-66
2022/01/26 05:32:15;;;;;;;24.43;11.53;;;2.20;99.90;;;;;;8396178;28;20200;-65
2022/01/26 05:36:16;;;;;;;28.53;11.30;;;2.20;99.90;;;;;;8395294;28;20189;-65
2022/01/26 05:40:17;;;;;;;25.63;10.77;;;2.20;99.90;;;;;;8417437;28;20227;-65
2022/01/26 05:44:18;;;;;;;23.97;10.90;;;2.20;99.90;;;;;;8392490;28;20188;-64
2022/01/26 05:48:18;;;;;;;27.27;12.57;;;2.20;99.90;;;;;;8396512;28;20197;-65
2022/01/26 05:52:19;;;;;;;24.50;11.30;;;2.20;99.90;;;;;;8383588;28;20276;-66
2022/01/26 05:56:20;;;;;;;26.63;10.87;;;2.20;99.90;;;;;;8402339;28;20322;-66
2022/01/26 06:00:21;;;;;;;32.57;11.70;;;2.20;99.90;;;;;;8403002;28;20192;-65
2022/01/26 06:04:22;;;;;;;27.57;12.50;;;2.20;99.90;;;;;;8400501;28;20181;-65
2022/01/26 06:08:23;;;;;;;26.50;11.53;;;2.20;99.90;;;;;;8394613;28;20224;-66
2022/01/26 06:12:24;;;;;;;25.37;11.07;;;2.20;99.90;;;;;;8396806;28;20237;-65
2022/01/26 06:16:25;;;;;;;29.47;11.87;;;2.20;99.90;;;;;;8406638;28;20205;-66
2022/01/26 06:20:26;;;;;;;21.57;10.27;;;2.20;99.90;;;;;;8415707;28;20193;-66
2022/01/26 06:24:27;;;;;;;30.90;11.27;;;2.30;99.90;;;;;;8392848;28;20181;-64
2022/01/26 06:28:28;;;;;;;30.73;12.40;;;2.20;99.90;;;;;;8395575;28;20243;-66
2022/01/26 06:32:29;;;;;;;25.73;11.30;;;2.20;99.90;;;;;;8414851;28;20181;-67
2022/01/26 06:36:30;;;;;;;25.57;11.67;;;2.20;99.90;;;;;;8405485;28;20182;-66
2022/01/26 06:40:31;;;;;;;27.63;11.47;;;2.20;99.90;;;;;;8415205;28;20224;-66
2022/01/26 06:44:36;;;;;;;29.00;12.30;;;2.20;99.90;;;;;;8404724;28;20192;-66
2022/01/26 06:48:40;;;;;;;23.47;11.07;;;2.20;99.90;;;;;;8408161;28;20251;-66
2022/01/26 06:52:43;;;;;;;26.53;10.80;;;2.20;99.90;;;;;;8407752;28;20188;-66
2022/01/26 06:56:45;;;;;;;23.97;11.13;;;2.20;99.90;;;;;;8390995;28;20189;-69
2022/01/26 07:00:45;;;;;;;23.10;10.57;;;2.20;99.90;;;;;;8386837;28;20184;-67
2022/01/26 07:04:49;;;;;;;21.50;9.43;;;2.30;99.90;;;;;;8376183;28;20334;-67
2022/01/26 07:08:50;;;;;;;17.77;8.97;;;2.30;99.90;;;;;;8396946;28;20223;-68
2022/01/26 07:12:51;;;;;;;18.33;9.00;;;2.30;99.90;;;;;;8393151;28;20193;-67
2022/01/26 07:21:27;;;;;;;19.00;9.57;;;2.40;99.90;;;;;;8405279;28;20251;-67
2022/01/26 07:25:27;;;;;;;14.97;7.13;;;2.30;99.90;;;;;;8411625;28;20207;-67
2022/01/26 07:29:28;;;;;;;12.93;6.83;;;2.40;99.90;;;;;;8393644;28;20209;-67
2022/01/26 07:33:29;;;;;;;17.33;8.90;;;2.40;99.90;;;;;;8371934;28;20173;-67
2022/01/26 07:37:31;;;;;;;17.77;8.53;;;2.30;99.90;;;;;;8420778;28;20192;-67
2022/01/26 07:41:31;;;;;;;15.93;8.67;;;2.40;99.90;;;;;;8412660;28;20230;-67
2022/01/26 07:45:32;;;;;;;16.97;7.83;;;2.30;99.90;;;;;;8404832;28;20199;-67
2022/01/26 07:49:33;;;;;;;13.07;7.20;;;2.30;99.90;;;;;;8413123;28;20250;-67
2022/01/26 07:53:36;;;;;;;15.20;8.27;;;2.30;99.90;;;;;;8410396;28;20220;-68
2022/01/26 07:57:38;;;;;;;14.30;7.60;;;2.30;99.90;;;;;;8401570;28;20188;-68
2022/01/26 08:01:39;;;;;;;12.47;7.43;;;2.30;99.90;;;;;;8405476;28;20189;-68
2022/01/26 08:05:40;;;;;;;10.83;6.87;;;2.30;99.90;;;;;;8400127;28;20181;-67
2022/01/26 08:09:43;;;;;;;14.23;8.00;;;2.30;99.90;;;;;;8407305;28;20220;-67
2022/01/26 08:13:44;;;;;;;15.93;7.93;;;2.30;99.90;;;;;;8410818;28;20188;-68
2022/01/26 08:17:45;;;;;;;15.87;8.40;;;2.30;99.90;;;;;;8390239;28;20232;-68
2022/01/26 08:21:46;;;;;;;16.07;8.40;;;2.40;99.90;;;;;;8393537;28;20228;-67
2022/01/26 08:25:50;;;;;;;15.43;8.47;;;2.40;99.90;;;;;;8401790;28;20188;-67
2022/01/26 08:29:55;;;;;;;12.67;7.77;;;2.50;99.90;;;;;;8391768;28;20205;-66
2022/01/26 08:33:56;;;;;;;17.90;8.23;;;2.60;99.90;;;;;;8405922;28;20181;-68
2022/01/26 08:37:56;;;;;;;11.63;6.53;;;2.70;99.90;;;;;;8412710;28;20246;-67
2022/01/26 08:41:57;;;;;;;14.13;7.20;;;2.70;99.90;;;;;;8411766;28;20200;-67
2022/01/26 08:45:58;;;;;;;11.33;6.77;;;2.70;99.90;;;;;;8406920;28;20189;-67
2022/01/26 08:49:59;;;;;;;9.17;6.33;;;2.70;99.90;;;;;;8417886;28;20204;-67
2022/01/26 08:54:00;;;;;;;7.70;5.03;;;2.80;99.90;;;;;;8407408;28;20236;-67
2022/01/26 08:58:01;;;;;;;8.77;5.80;;;2.80;99.90;;;;;;8403328;28;20181;-68
2022/01/26 09:02:02;;;;;;;13.00;6.70;;;2.80;99.90;;;;;;8410661;28;20199;-68
2022/01/26 09:06:03;;;;;;;10.13;6.40;;;2.80;99.90;;;;;;8393797;28;20185;-68
2022/01/26 09:10:06;;;;;;;11.20;6.10;;;2.80;99.90;;;;;;8391521;28;20217;-66
2022/01/26 09:14:08;;;;;;;12.97;7.97;;;2.70;99.90;;;;;;8385187;28;20188;-68
2022/01/26 09:18:14;;;;;;;11.93;6.93;;;2.70;99.90;;;;;;8401918;28;20203;-67
2022/01/26 09:22:17;;;;;;;12.10;7.03;;;2.70;99.90;;;;;;8390151;28;20196;-67
2022/01/26 09:26:20;;;;;;;10.77;6.73;;;2.80;99.90;;;;;;8356735;28;20273;-67
2022/01/26 09:30:21;;;;;;;12.37;6.97;;;2.80;99.90;;;;;;8403787;28;20234;-67
2022/01/26 09:34:24;;;;;;;11.03;6.73;;;2.80;99.90;;;;;;8413302;28;20197;-68
2022/01/26 09:38:25;;;;;;;12.83;7.60;;;2.70;99.90;;;;;;8393880;28;20276;-67
2022/01/26 09:42:26;;;;;;;8.43;5.90;;;2.80;99.90;;;;;;8400273;28;20195;-67
2022/01/26 09:46:27;;;;;;;9.83;5.73;;;2.70;99.90;;;;;;8396584;28;20196;-68
2022/01/26 09:50:28;;;;;;;10.60;6.57;;;2.80;99.90;;;;;;8393935;28;20240;-69
2022/01/26 09:54:32;;;;;;;9.43;5.87;;;2.90;99.90;;;;;;8402066;28;20188;-68
2022/01/26 09:58:33;;;;;;;7.77;5.10;;;3.00;99.90;;;;;;8404507;28;20184;-67
2022/01/26 10:02:35;;;;;;;7.97;5.33;;;2.90;99.90;;;;;;8402764;28;20210;-67
2022/01/26 10:06:40;;;;;;;8.43;5.23;;;3.00;99.90;;;;;;8400708;28;20266;-68
2022/01/26 10:19:17;;;;;;;6.70;4.83;;;3.00;99.90;;;;;;8397271;28;20208;-67
2022/01/26 10:23:23;;;;;;;8.07;5.00;;;3.00;99.90;;;;;;8411981;28;20242;-68
2022/01/26 10:27:52;;;;;;;7.17;5.33;;;3.10;99.90;;;;;;8410030;28;20193;-67
2022/01/26 10:31:53;;;;;;;6.53;4.63;;;3.10;99.90;;;;;;8412152;28;20176;-68
2022/01/26 10:36:00;;;;;;;7.43;4.97;;;2.90;99.90;;;;;;8414068;28;20193;-68
2022/01/26 10:40:16;;;;;;;7.07;4.43;;;3.00;99.90;;;;;;8388654;28;20260;-68
2022/01/26 10:44:18;;;;;;;6.30;4.23;;;3.00;99.90;;;;;;8392467;28;20189;-67
2022/01/26 10:48:42;;;;;;;7.33;4.93;;;2.90;99.90;;;;;;8403791;28;20200;-68
2022/01/26 10:52:42;;;;;;;6.53;4.50;;;2.90;99.90;;;;;;8400176;28;20189;-67
2022/01/26 10:56:43;;;;;;;7.30;4.13;;;2.90;99.90;;;;;;8391487;28;20185;-68
2022/01/26 11:00:45;;;;;;;6.70;4.73;;;3.00;99.90;;;;;;8395349;28;20185;-66
2022/01/26 11:04:45;;;;;;;6.83;4.47;;;2.90;99.90;;;;;;8403301;28;20207;-67
2022/01/26 11:08:49;;;;;;;6.13;4.07;;;2.90;99.90;;;;;;8405748;28;20225;-67
2022/01/26 11:12:49;;;;;;;6.60;4.17;;;2.80;99.90;;;;;;8391148;28;20200;-67
2022/01/26 11:17:01;;;;;;;5.90;3.77;;;2.70;99.90;;;;;;8399150;28;20310;-69
2022/01/26 11:21:05;;;;;;;5.20;4.00;;;2.60;99.90;;;;;;8414943;28;20253;-70
2022/01/26 11:25:11;;;;;;;6.40;4.27;;;2.60;99.90;;;;;;8413733;28;20185;-68
2022/01/26 11:29:24;;;;;;;6.43;4.53;;;2.70;99.90;;;;;;8401453;28;20209;-68
2022/01/26 11:33:28;;;;;;;6.07;4.40;;;2.60;99.90;;;;;;8359243;28;20202;-67
2022/01/26 11:37:41;;;;;;;7.30;4.53;;;2.60;99.90;;;;;;8410361;28;20195;-67
2022/01/26 11:46:16;;;;;;;8.20;4.33;;;2.60;99.90;;;;;;8400201;28;20318;-67
2022/01/26 11:50:20;;;;;;;6.37;3.93;;;2.70;99.90;;;;;;8379645;28;20307;-67
2022/01/26 11:54:28;;;;;;;6.07;4.33;;;2.60;99.90;;;;;;8408208;28;20190;-66
2022/01/26 11:58:37;;;;;;;5.33;4.00;;;2.60;99.90;;;;;;8397784;28;20188;-68
2022/01/26 12:06:50;;;;;;;7.13;4.57;;;2.30;99.90;;;;;;8406126;28;20273;-68
2022/01/26 12:10:51;;;;;;;8.17;4.93;;;2.30;99.90;;;;;;8403291;28;20528;-68
2022/01/26 12:15:16;;;;;;;7.67;5.03;;;2.30;99.90;;;;;;8402234;28;20184;-68
2022/01/26 12:32:37;;;;;;;8.77;5.67;;;2.20;99.90;;;;;;8386714;28;20193;-67
2022/01/26 12:36:58;;;;;;;10.37;5.93;;;2.30;99.90;;;;;;8394124;28;20188;-68
2022/01/26 12:45:25;;;;;;;10.47;5.93;;;2.60;99.90;;;;;;8385937;28;20196;-67
2022/01/26 12:49:28;;;;;;;7.67;5.20;;;2.70;99.90;;;;;;8390304;28;20216;-68
2022/01/26 12:53:32;;;;;;;10.43;6.07;;;2.80;99.90;;;;;;8399883;28;20189;-67
2022/01/26 12:57:48;;;;;;;10.00;6.77;;;2.80;99.90;;;;;;8400335;28;20185;-67
2022/01/26 13:01:54;;;;;;;8.07;5.77;;;2.80;99.90;;;;;;8400977;28;20530;-68
2022/01/26 13:06:05;;;;;;;10.93;5.40;;;2.70;99.90;;;;;;8390756;28;20184;-68
2022/01/26 13:10:18;;;;;;;10.93;6.27;;;2.60;99.90;;;;;;8394966;28;20217;-68
2022/01/26 13:14:27;;;;;;;10.67;6.30;;;2.50;99.90;;;;;;8399175;28;20185;-68
2022/01/26 13:23:07;;;;;;;9.20;5.70;;;2.50;99.90;;;;;;8385116;28;20201;-68
2022/01/26 13:44:46;;;;;;;11.10;6.33;;;2.20;99.90;;;;;;8395880;28;20180;-68
2022/01/26 14:01:15;;;;;;;9.37;5.93;;;2.30;99.90;;;;;;8398174;28;20216;-68
2022/01/26 14:05:16;;;;;;;9.80;6.27;;;2.30;99.90;;;;;;8391090;28;20187;-67
2022/01/26 14:09:17;;;;;;;13.50;6.87;;;2.30;99.90;;;;;;8399486;28;20215;-68
2022/01/26 14:13:22;;;;;;;10.30;6.23;;;2.30;99.90;;;;;;8401244;28;20189;-67
2022/01/26 14:26:13;;;;;;;11.33;6.77;;;2.20;99.90;;;;;;8364576;28;20189;-68
2022/01/26 15:09:36;;;;;;;9.97;6.47;;;2.30;99.90;;;;;;8395854;28;20211;-68
2022/01/26 15:52:48;;;;;;;14.07;8.07;;;1.60;99.90;;;;;;8409311;28;20255;-68
2022/01/26 18:27:04;;;;;;;9.00;6.10;;;0.80;99.90;;;;;;8384213;28;20411;-65
2022/01/26 18:52:44;;;;;;;8.63;5.80;;;0.90;99.90;;;;;;8384635;28;20247;-67
2022/01/26 18:56:46;;;;;;;6.83;4.87;;;0.80;99.90;;;;;;8375827;28;20207;-68
2022/01/26 19:00:47;;;;;;;12.47;5.53;;;0.80;99.90;;;;;;8392255;28;20189;-65
2022/01/26 19:04:48;;;;;;;10.83;5.70;;;0.70;99.90;;;;;;8379286;28;20238;-65
2022/01/26 19:08:49;;;;;;;10.17;5.53;;;0.70;99.90;;;;;;8391080;28;20284;-66
2022/01/26 19:12:51;;;;;;;10.53;5.43;;;0.70;99.90;;;;;;8401959;28;20215;-65
2022/01/26 19:17:20;;;;;;;9.20;5.70;;;0.60;99.90;;;;;;8399660;28;20201;-68
2022/01/26 19:21:25;;;;;;;8.60;4.90;;;0.60;99.90;;;;;;8390377;28;20188;-67
2022/01/26 19:25:36;;;;;;;10.00;5.80;;;0.50;99.90;;;;;;8404849;28;20188;-74
2022/01/26 19:54:49;;;;;;;13.37;6.57;;;0.80;99.90;;;;;;8380957;28;20178;-65
2022/01/26 19:58:50;;;;;;;12.20;7.10;;;0.80;99.90;;;;;;8389468;28;20184;-67
2022/01/26 20:02:51;;;;;;;13.00;7.03;;;0.70;99.90;;;;;;8382082;28;20182;-68
2022/01/26 20:06:52;;;;;;;12.87;7.20;;;0.80;99.90;;;;;;8401546;28;20605;-66
2022/01/26 20:10:57;;;;;;;12.90;7.10;;;0.70;99.90;;;;;;8422297;28;20204;-66
2022/01/26 20:14:58;;;;;;;16.43;8.47;;;0.70;99.90;;;;;;8414349;28;20204;-66
2022/01/26 20:18:59;;;;;;;14.00;7.87;;;0.70;99.90;;;;;;8393082;28;20208;-65
2022/01/26 20:23:00;;;;;;;16.67;8.23;;;0.70;99.90;;;;;;8401696;28;20180;-67
2022/01/26 20:27:05;;;;;;;15.30;7.97;;;0.70;99.90;;;;;;8410938;28;20277;-66
2022/01/26 20:31:17;;;;;;;15.83;9.07;;;0.70;99.90;;;;;;8412347;28;20208;-66
2022/01/26 20:35:19;;;;;;;16.30;7.83;;;0.70;99.90;;;;;;8405123;28;20181;-70
2022/01/26 20:39:20;;;;;;;15.43;8.47;;;0.70;99.90;;;;;;8417437;28;20577;-67
2022/01/26 20:43:21;;;;;;;17.70;8.73;;;0.70;99.90;;;;;;8408141;28;20185;-67
2022/01/26 20:47:22;;;;;;;17.90;8.97;;;0.70;99.90;;;;;;8393114;28;20212;-67
2022/01/26 20:51:23;;;;;;;15.83;8.37;;;0.70;99.90;;;;;;8390425;28;20201;-66
2022/01/26 20:55:24;;;;;;;18.60;9.23;;;0.70;99.90;;;;;;8399429;28;20201;-65
2022/01/26 20:59:25;;;;;;;18.50;9.40;;;0.70;99.90;;;;;;8382081;28;20180;-66
2022/01/26 21:03:26;;;;;;;17.90;9.73;;;0.80;99.90;;;;;;8389520;28;20304;-67
2022/01/26 21:07:27;;;;;;;20.20;10.23;;;0.80;99.90;;;;;;8397942;28;20214;-65
2022/01/26 21:11:28;;;;;;;21.83;10.63;;;0.80;99.90;;;;;;8395222;28;20222;-67
2022/01/26 21:15:29;;;;;;;18.37;9.57;;;0.80;99.90;;;;;;8402906;28;20192;-65
2022/01/26 21:19:32;;;;;;;20.17;9.50;;;0.80;99.90;;;;;;8414261;28;20175;-66
2022/01/26 21:23:36;;;;;;;17.20;9.57;;;0.80;99.90;;;;;;8388044;28;20209;-66
2022/01/26 21:27:36;;;;;;;22.03;10.30;;;0.80;99.90;;;;;;8384519;28;20180;-67
2022/01/26 21:31:37;;;;;;;20.63;11.43;;;0.80;99.90;;;;;;8391383;28;20254;-66
2022/01/26 21:35:39;;;;;;;23.03;11.93;;;0.80;99.90;;;;;;8389100;28;20181;-66
2022/01/26 21:39:41;;;;;;;27.47;11.43;;;0.70;99.90;;;;;;8416520;28;20180;-66
2022/01/26 21:43:41;;;;;;;29.97;13.43;;;0.70;99.90;;;;;;8406433;28;20224;-64
2022/01/26 21:47:42;;;;;;;27.07;12.10;;;0.70;99.90;;;;;;8407372;28;20180;-66
2022/01/26 21:51:43;;;;;;;31.07;14.43;;;0.70;99.90;;;;;;8380701;28;20203;-66
2022/01/26 21:55:45;;;;;;;30.17;13.60;;;0.70;99.90;;;;;;8395675;28;20183;-66
2022/01/26 21:59:46;;;;;;;30.60;13.80;;;0.70;99.90;;;;;;8399186;28;20195;-65
2022/01/26 22:03:46;;;;;;;35.67;14.60;;;0.60;99.90;;;;;;8393988;28;20481;-66
2022/01/26 22:07:48;;;;;;;29.67;14.03;;;0.60;99.90;;;;;;8403193;28;20183;-66
2022/01/26 22:11:48;;;;;;;29.63;14.00;;;0.70;99.90;;;;;;8386706;28;20211;-65
2022/01/26 22:15:49;;;;;;;29.00;13.90;;;0.70;99.90;;;;;;8395331;28;20216;-65
2022/01/26 22:19:51;;;;;;;30.30;14.27;;;0.70;99.90;;;;;;8387883;28;20176;-65
2022/01/26 22:23:51;;;;;;;30.83;14.73;;;0.70;99.90;;;;;;8402207;28;20181;-67
2022/01/26 22:27:59;;;;;;;34.13;14.27;;;0.70;99.90;;;;;;8385530;28;20219;-67
2022/01/26 22:32:02;;;;;;;37.60;15.83;;;0.70;99.90;;;;;;8412105;28;20204;-65
2022/01/26 22:36:03;;;;;;;33.57;16.07;;;0.70;99.90;;;;;;8405741;28;20507;-66
2022/01/26 22:40:06;;;;;;;36.10;15.83;;;0.70;99.90;;;;;;8387899;28;20177;-66
2022/01/26 22:44:07;;;;;;;41.40;16.23;;;0.80;99.90;;;;;;8410797;28;20171;-66
2022/01/26 22:48:11;;;;;;;36.60;15.57;;;0.70;99.90;;;;;;8408540;28;20181;-66
2022/01/26 22:52:11;;;;;;;33.07;15.37;;;0.70;99.90;;;;;;8387493;28;20214;-66
2022/01/26 22:56:13;;;;;;;37.07;16.03;;;0.70;99.90;;;;;;8394464;28;20282;-66
2022/01/26 23:00:26;;;;;;;35.27;16.63;;;0.70;99.90;;;;;;8382845;28;20260;-66
2022/01/26 23:04:28;;;;;;;32.67;14.17;;;0.80;99.90;;;;;;8386866;28;20177;-67
2022/01/26 23:08:29;;;;;;;30.70;14.13;;;0.80;99.90;;;;;;8410250;28;20184;-66
2022/01/26 23:12:29;;;;;;;31.93;14.80;;;0.80;99.90;;;;;;8394123;28;20252;-66
2022/01/26 23:16:31;;;;;;;32.27;13.53;;;0.80;99.90;;;;;;8396274;28;20196;-67
2022/01/26 23:20:32;;;;;;;33.93;14.80;;;0.90;99.90;;;;;;8399280;28;20201;-65
2022/01/26 23:24:39;;;;;;;35.10;14.40;;;0.90;99.90;;;;;;8394214;28;20299;-66
